sensor_id;sensor_type;location;lat;lon;timestamp;temperature;humidity
34873;DHT22;21084;51.098;14.506;2023-09-07T00:00:25;12.40;99.90
34873;DHT22;21084;51.098;14.506;2023-09-07T00:02:53;12.40;99.90
34873;DHT22;21084;51.098;14.506;2023-09-07T00:05:22;12.40;99.90
34873;DHT22;21084;51.098;14.506;2023-09-07T00:07:52;12.40;99.90
34873;DHT22;21084;51.098;14.506;2023-09-07T00:10:22;12.40;99.90
34873;DHT22;21084;51.098;14.506;2023-09-07T00:12:53;12.30;99.90
34873;DHT22;21084;51.098;14.506;2023-09-07T00:15:21;12.30;99.90
34873;DHT22;21084;51.098;14.506;2023-09-07T00:17:49;12.30;99.90
34873;DHT22;21084;51.098;14.506;2023-09-07T00:20:18;12.30;99.90
34873;DHT22;21084;51.098;14.506;2023-09-07T00:22:48;12.30;99.90
34873;DHT22;21084;51.098;14.506;2023-09-07T00:25:17;12.30;99.90
34873;DHT22;21084;51.098;14.506;2023-09-07T00:27:48;12.20;99.90
34873;DHT22;21084;51.098;14.506;2023-09-07T00:30:17;12.20;99.90
34873;DHT22;21084;51.098;14.506;2023-09-07T00:32:45;12.20;99.90
34873;DHT22;21084;51.098;14.506;2023-09-07T00:35:13;12.20;99.90
34873;DHT22;21084;51.098;14.506;2023-09-07T00:37:42;12.20;99.90
34873;DHT22;21084;51.098;14.506;2023-09-07T00:40:10;12.20;99.90
34873;DHT22;21084;51.098;14.506;2023-09-07T00:42:39;12.20;99.90
34873;DHT22;21084;51.098;14.506;2023-09-07T00:45:10;12.20;99.90
34873;DHT22;21084;51.098;14.506;2023-09-07T00:47:40;12.20;99.90
34873;DHT22;21084;51.098;14.506;2023-09-07T00:50:09;12.20;99.90
34873;DHT22;21084;51.098;14.506;2023-09-07T00:52:40;12.10;99.90
34873;DHT22;21084;51.098;14.506;2023-09-07T00:55:10;12.20;99.90
34873;DHT22;21084;51.098;14.506;2023-09-07T00:57:38;12.10;99.90
34873;DHT22;21084;51.098;14.506;2023-09-07T01:00:13;12.10;99.90
34873;DHT22;21084;51.098;14.506;2023-09-07T01:02:41;12.10;99.90
34873;DHT22;21084;51.098;14.506;2023-09-07T01:05:12;12.00;99.90
34873;DHT22;21084;51.098;14.506;2023-09-07T01:07:43;12.10;99.90
34873;DHT22;21084;51.098;14.506;2023-09-07T01:10:12;12.00;99.90
34873;DHT22;21084;51.098;14.506;2023-09-07T01:12:41;12.00;99.90
34873;DHT22;21084;51.098;14.506;2023-09-07T01:15:11;12.00;99.90
34873;DHT22;21084;51.098;14.506;2023-09-07T01:17:40;11.90;99.90
34873;DHT22;21084;51.098;14.506;2023-09-07T01:20:09;11.90;99.90
34873;DHT22;21084;51.098;14.506;2023-09-07T01:22:39;11.90;99.90
34873;DHT22;21084;51.098;14.506;2023-09-07T01:25:08;11.80;99.90
34873;DHT22;21084;51.098;14.506;2023-09-07T01:27:37;11.80;99.90
34873;DHT22;21084;51.098;14.506;2023-09-07T01:30:07;11.80;99.90
34873;DHT22;21084;51.098;14.506;2023-09-07T01:32:36;11.70;99.90
34873;DHT22;21084;51.098;14.506;2023-09-07T01:35:05;11.70;99.90
34873;DHT22;21084;51.098;14.506;2023-09-07T01:37:35;11.60;99.90
34873;DHT22;21084;51.098;14.506;2023-09-07T01:40:06;11.60;99.90
34873;DHT22;21084;51.098;14.506;2023-09-07T01:42:36;11.50;99.90
34873;DHT22;21084;51.098;14.506;2023-09-07T01:45:05;11.60;99.90
34873;DHT22;21084;51.098;14.506;2023-09-07T01:47:33;11.60;99.90
34873;DHT22;21084;51.098;14.506;2023-09-07T01:50:02;11.60;99.90
34873;DHT22;21084;51.098;14.506;2023-09-07T01:52:31;11.50;99.90
34873;DHT22;21084;51.098;14.506;2023-09-07T01:54:59;11.50;99.90
34873;DHT22;21084;51.098;14.506;2023-09-07T01:57:29;11.50;99.90
34873;DHT22;21084;51.098;14.506;2023-09-07T01:59:59;11.60;99.90
34873;DHT22;21084;51.098;14.506;2023-09-07T02:02:27;11.60;99.90
34873;DHT22;21084;51.098;14.506;2023-09-07T02:04:55;11.60;99.90
34873;DHT22;21084;51.098;14.506;2023-09-07T02:07:24;11.60;99.90
34873;DHT22;21084;51.098;14.506;2023-09-07T02:09:53;11.60;99.90
34873;DHT22;21084;51.098;14.506;2023-09-07T02:12:21;11.60;99.90
34873;DHT22;21084;51.098;14.506;2023-09-07T02:14:51;11.60;99.90
34873;DHT22;21084;51.098;14.506;2023-09-07T02:17:19;11.50;99.90
34873;DHT22;21084;51.098;14.506;2023-09-07T02:19:48;11.50;99.90
34873;DHT22;21084;51.098;14.506;2023-09-07T02:22:17;11.50;99.90
34873;DHT22;21084;51.098;14.506;2023-09-07T02:24:45;11.40;99.90
34873;DHT22;21084;51.098;14.506;2023-09-07T02:27:14;11.50;99.90
34873;DHT22;21084;51.098;14.506;2023-09-07T02:29:42;11.50;99.90
34873;DHT22;21084;51.098;14.506;2023-09-07T02:32:12;11.50;99.90
34873;DHT22;21084;51.098;14.506;2023-09-07T02:34:40;11.50;99.90
34873;DHT22;21084;51.098;14.506;2023-09-07T02:37:09;11.50;99.90
34873;DHT22;21084;51.098;14.506;2023-09-07T02:39:38;11.50;99.90
34873;DHT22;21084;51.098;14.506;2023-09-07T02:42:07;11.40;99.90
34873;DHT22;21084;51.098;14.506;2023-09-07T02:44:35;11.40;99.90
34873;DHT22;21084;51.098;14.506;2023-09-07T02:47:05;11.30;99.90
34873;DHT22;21084;51.098;14.506;2023-09-07T02:49:38;11.30;99.90
34873;DHT22;21084;51.098;14.506;2023-09-07T02:52:06;11.30;99.90
34873;DHT22;21084;51.098;14.506;2023-09-07T02:54:34;11.30;99.90
34873;DHT22;21084;51.098;14.506;2023-09-07T02:57:03;11.30;99.90
34873;DHT22;21084;51.098;14.506;2023-09-07T02:59:31;11.20;99.90
34873;DHT22;21084;51.098;14.506;2023-09-07T03:01:59;11.20;99.90
34873;DHT22;21084;51.098;14.506;2023-09-07T03:04:28;11.10;99.90
34873;DHT22;21084;51.098;14.506;2023-09-07T03:06:57;11.10;99.90
34873;DHT22;21084;51.098;14.506;2023-09-07T03:09:25;11.10;99.90
34873;DHT22;21084;51.098;14.506;2023-09-07T03:11:54;11.00;99.90
34873;DHT22;21084;51.098;14.506;2023-09-07T03:14:22;11.00;99.90
34873;DHT22;21084;51.098;14.506;2023-09-07T03:16:51;10.90;99.90
34873;DHT22;21084;51.098;14.506;2023-09-07T03:19:21;10.90;99.90
34873;DHT22;21084;51.098;14.506;2023-09-07T03:21:50;10.90;99.90
34873;DHT22;21084;51.098;14.506;2023-09-07T03:24:20;10.80;99.90
34873;DHT22;21084;51.098;14.506;2023-09-07T03:26:48;10.90;99.90
34873;DHT22;21084;51.098;14.506;2023-09-07T03:29:17;10.90;99.90
34873;DHT22;21084;51.098;14.506;2023-09-07T03:31:45;10.90;99.90
34873;DHT22;21084;51.098;14.506;2023-09-07T03:34:14;10.90;99.90
34873;DHT22;21084;51.098;14.506;2023-09-07T03:36:42;10.90;99.90
34873;DHT22;21084;51.098;14.506;2023-09-07T03:39:11;10.80;99.90
34873;DHT22;21084;51.098;14.506;2023-09-07T03:41:41;10.80;99.90
34873;DHT22;21084;51.098;14.506;2023-09-07T03:44:09;10.80;99.90
34873;DHT22;21084;51.098;14.506;2023-09-07T03:46:38;10.80;99.90
34873;DHT22;21084;51.098;14.506;2023-09-07T03:49:06;10.80;99.90
34873;DHT22;21084;51.098;14.506;2023-09-07T03:51:34;10.80;99.90
34873;DHT22;21084;51.098;14.506;2023-09-07T03:54:03;10.80;99.90
34873;DHT22;21084;51.098;14.506;2023-09-07T03:56:31;10.80;99.90
34873;DHT22;21084;51.098;14.506;2023-09-07T03:59:01;10.80;99.90
34873;DHT22;21084;51.098;14.506;2023-09-07T04:01:29;10.80;99.90
34873;DHT22;21084;51.098;14.506;2023-09-07T04:03:58;10.80;99.90
34873;DHT22;21084;51.098;14.506;2023-09-07T04:06:26;10.80;99.90
34873;DHT22;21084;51.098;14.506;2023-09-07T04:08:55;10.80;99.90
34873;DHT22;21084;51.098;14.506;2023-09-07T04:11:23;10.80;99.90
34873;DHT22;21084;51.098;14.506;2023-09-07T04:13:51;10.80;99.90
34873;DHT22;21084;51.098;14.506;2023-09-07T04:16:21;10.80;99.90
34873;DHT22;21084;51.098;14.506;2023-09-07T04:18:49;10.80;99.90
34873;DHT22;21084;51.098;14.506;2023-09-07T04:21:18;10.80;99.90
34873;DHT22;21084;51.098;14.506;2023-09-07T04:23:46;10.80;99.90
34873;DHT22;21084;51.098;14.506;2023-09-07T04:26:14;10.70;99.90
34873;DHT22;21084;51.098;14.506;2023-09-07T04:28:43;10.70;99.90
34873;DHT22;21084;51.098;14.506;2023-09-07T04:31:11;10.70;99.90
34873;DHT22;21084;51.098;14.506;2023-09-07T04:33:41;10.70;99.90
34873;DHT22;21084;51.098;14.506;2023-09-07T04:36:10;10.70;99.90
34873;DHT22;21084;51.098;14.506;2023-09-07T04:38:38;10.70;99.90
34873;DHT22;21084;51.098;14.506;2023-09-07T04:41:07;10.80;99.90
34873;DHT22;21084;51.098;14.506;2023-09-07T04:43:35;10.80;99.90
34873;DHT22;21084;51.098;14.506;2023-09-07T04:46:04;10.80;99.90
34873;DHT22;21084;51.098;14.506;2023-09-07T04:48:32;10.80;99.90
34873;DHT22;21084;51.098;14.506;2023-09-07T04:51:03;10.90;99.90
34873;DHT22;21084;51.098;14.506;2023-09-07T04:53:32;10.90;99.90
34873;DHT22;21084;51.098;14.506;2023-09-07T04:56:02;10.90;99.90
34873;DHT22;21084;51.098;14.506;2023-09-07T04:58:30;11.00;99.90
34873;DHT22;21084;51.098;14.506;2023-09-07T05:01:01;11.00;99.90
34873;DHT22;21084;51.098;14.506;2023-09-07T05:03:29;11.10;99.90
34873;DHT22;21084;51.098;14.506;2023-09-07T05:05:59;11.20;99.90
34873;DHT22;21084;51.098;14.506;2023-09-07T05:08:28;11.30;99.90
34873;DHT22;21084;51.098;14.506;2023-09-07T05:10:57;11.30;99.90
34873;DHT22;21084;51.098;14.506;2023-09-07T05:13:26;11.40;99.90
34873;DHT22;21084;51.098;14.506;2023-09-07T05:15:55;11.50;99.90
34873;DHT22;21084;51.098;14.506;2023-09-07T05:18:23;11.60;99.90
34873;DHT22;21084;51.098;14.506;2023-09-07T05:20:51;11.70;99.90
34873;DHT22;21084;51.098;14.506;2023-09-07T05:23:20;11.80;99.90
34873;DHT22;21084;51.098;14.506;2023-09-07T05:25:50;11.90;99.90
34873;DHT22;21084;51.098;14.506;2023-09-07T05:28:20;12.10;99.90
34873;DHT22;21084;51.098;14.506;2023-09-07T05:30:49;12.20;99.90
34873;DHT22;21084;51.098;14.506;2023-09-07T05:33:17;12.30;99.90
34873;DHT22;21084;51.098;14.506;2023-09-07T05:35:46;12.50;99.90
34873;DHT22;21084;51.098;14.506;2023-09-07T05:38:14;12.60;99.90
34873;DHT22;21084;51.098;14.506;2023-09-07T05:40:43;12.80;99.90
34873;DHT22;21084;51.098;14.506;2023-09-07T05:43:13;13.00;99.90
34873;DHT22;21084;51.098;14.506;2023-09-07T05:45:42;13.20;99.90
34873;DHT22;21084;51.098;14.506;2023-09-07T05:48:10;13.40;99.90
34873;DHT22;21084;51.098;14.506;2023-09-07T05:50:40;13.60;99.90
34873;DHT22;21084;51.098;14.506;2023-09-07T05:53:09;13.90;99.90
34873;DHT22;21084;51.098;14.506;2023-09-07T05:55:37;14.20;99.90
34873;DHT22;21084;51.098;14.506;2023-09-07T05:58:07;14.40;99.90
34873;DHT22;21084;51.098;14.506;2023-09-07T06:00:37;14.70;99.90
34873;DHT22;21084;51.098;14.506;2023-09-07T06:03:07;14.90;99.90
34873;DHT22;21084;51.098;14.506;2023-09-07T06:05:36;15.20;99.90
34873;DHT22;21084;51.098;14.506;2023-09-07T06:08:05;15.50;99.90
34873;DHT22;21084;51.098;14.506;2023-09-07T06:10:34;15.70;99.90
34873;DHT22;21084;51.098;14.506;2023-09-07T06:13:03;16.00;99.90
34873;DHT22;21084;51.098;14.506;2023-09-07T06:15:31;16.30;99.90
34873;DHT22;21084;51.098;14.506;2023-09-07T06:18:01;16.70;99.90
34873;DHT22;21084;51.098;14.506;2023-09-07T06:20:30;16.90;99.90
34873;DHT22;21084;51.098;14.506;2023-09-07T06:22:58;17.20;99.90
34873;DHT22;21084;51.098;14.506;2023-09-07T06:25:27;17.50;99.90
34873;DHT22;21084;51.098;14.506;2023-09-07T06:27:56;17.80;99.90
34873;DHT22;21084;51.098;14.506;2023-09-07T06:30:24;18.10;99.90
34873;DHT22;21084;51.098;14.506;2023-09-07T06:32:52;18.30;99.90
34873;DHT22;21084;51.098;14.506;2023-09-07T06:35:23;18.70;99.90
34873;DHT22;21084;51.098;14.506;2023-09-07T06:37:51;19.00;99.90
34873;DHT22;21084;51.098;14.506;2023-09-07T06:40:19;19.30;99.90
34873;DHT22;21084;51.098;14.506;2023-09-07T06:42:48;19.60;99.90
34873;DHT22;21084;51.098;14.506;2023-09-07T06:45:16;19.90;99.90
34873;DHT22;21084;51.098;14.506;2023-09-07T06:47:45;20.30;99.90
34873;DHT22;21084;51.098;14.506;2023-09-07T06:50:13;20.50;99.90
34873;DHT22;21084;51.098;14.506;2023-09-07T06:52:43;20.80;99.90
34873;DHT22;21084;51.098;14.506;2023-09-07T06:55:11;21.10;99.90
34873;DHT22;21084;51.098;14.506;2023-09-07T06:57:40;21.30;99.90
34873;DHT22;21084;51.098;14.506;2023-09-07T07:00:09;21.60;99.90
34873;DHT22;21084;51.098;14.506;2023-09-07T07:02:37;21.90;99.90
34873;DHT22;21084;51.098;14.506;2023-09-07T07:05:06;22.20;99.90
34873;DHT22;21084;51.098;14.506;2023-09-07T07:07:35;22.50;99.90
34873;DHT22;21084;51.098;14.506;2023-09-07T07:10:06;22.80;99.90
34873;DHT22;21084;51.098;14.506;2023-09-07T07:12:39;23.10;99.90
34873;DHT22;21084;51.098;14.506;2023-09-07T07:15:08;23.40;99.90
34873;DHT22;21084;51.098;14.506;2023-09-07T07:17:37;23.90;98.40
34873;DHT22;21084;51.098;14.506;2023-09-07T07:20:06;23.80;98.60
34873;DHT22;21084;51.098;14.506;2023-09-07T07:22:35;24.20;98.30
34873;DHT22;21084;51.098;14.506;2023-09-07T07:25:06;24.50;98.00
34873;DHT22;21084;51.098;14.506;2023-09-07T07:27:34;25.00;98.00
34873;DHT22;21084;51.098;14.506;2023-09-07T07:30:03;25.40;96.40
34873;DHT22;21084;51.098;14.506;2023-09-07T07:32:32;25.60;95.30
34873;DHT22;21084;51.098;14.506;2023-09-07T07:35:00;25.70;95.70
34873;DHT22;21084;51.098;14.506;2023-09-07T07:37:29;26.20;94.60
34873;DHT22;21084;51.098;14.506;2023-09-07T07:39:58;26.40;93.50
34873;DHT22;21084;51.098;14.506;2023-09-07T07:42:28;26.70;92.60
34873;DHT22;21084;51.098;14.506;2023-09-07T07:44:56;26.70;91.60
34873;DHT22;21084;51.098;14.506;2023-09-07T07:47:25;26.90;92.00
34873;DHT22;21084;51.098;14.506;2023-09-07T07:49:53;27.20;91.80
34873;DHT22;21084;51.098;14.506;2023-09-07T07:52:21;27.70;91.40
34873;DHT22;21084;51.098;14.506;2023-09-07T07:54:50;27.80;90.80
34873;DHT22;21084;51.098;14.506;2023-09-07T07:57:18;28.00;87.60
34873;DHT22;21084;51.098;14.506;2023-09-07T07:59:49;28.10;86.70
34873;DHT22;21084;51.098;14.506;2023-09-07T08:02:17;28.40;84.20
34873;DHT22;21084;51.098;14.506;2023-09-07T08:04:46;28.80;85.80
34873;DHT22;21084;51.098;14.506;2023-09-07T08:07:14;28.80;82.40
34873;DHT22;21084;51.098;14.506;2023-09-07T08:09:43;28.90;81.60
34873;DHT22;21084;51.098;14.506;2023-09-07T08:12:11;29.00;84.00
34873;DHT22;21084;51.098;14.506;2023-09-07T08:14:39;29.40;82.20
34873;DHT22;21084;51.098;14.506;2023-09-07T08:17:11;29.60;83.30
34873;DHT22;21084;51.098;14.506;2023-09-07T08:19:40;30.00;80.70
34873;DHT22;21084;51.098;14.506;2023-09-07T08:22:08;30.20;75.10
34873;DHT22;21084;51.098;14.506;2023-09-07T08:24:36;30.20;76.30
34873;DHT22;21084;51.098;14.506;2023-09-07T08:27:05;30.20;78.60
34873;DHT22;21084;51.098;14.506;2023-09-07T08:29:33;30.50;78.10
34873;DHT22;21084;51.098;14.506;2023-09-07T08:32:01;30.90;76.30
34873;DHT22;21084;51.098;14.506;2023-09-07T08:34:33;30.70;74.40
34873;DHT22;21084;51.098;14.506;2023-09-07T08:37:03;30.70;74.20
34873;DHT22;21084;51.098;14.506;2023-09-07T08:39:33;31.20;73.80
34873;DHT22;21084;51.098;14.506;2023-09-07T08:42:03;31.50;72.10
34873;DHT22;21084;51.098;14.506;2023-09-07T08:44:32;31.40;72.00
34873;DHT22;21084;51.098;14.506;2023-09-07T08:47:01;32.00;71.60
34873;DHT22;21084;51.098;14.506;2023-09-07T08:49:30;32.40;66.60
34873;DHT22;21084;51.098;14.506;2023-09-07T08:52:01;31.70;65.20
34873;DHT22;21084;51.098;14.506;2023-09-07T08:54:29;31.70;67.10
34873;DHT22;21084;51.098;14.506;2023-09-07T08:56:58;32.30;66.30
34873;DHT22;21084;51.098;14.506;2023-09-07T08:59:27;32.70;66.10
34873;DHT22;21084;51.098;14.506;2023-09-07T09:01:58;32.90;63.20
34873;DHT22;21084;51.098;14.506;2023-09-07T09:04:27;33.10;62.80
34873;DHT22;21084;51.098;14.506;2023-09-07T09:06:56;33.30;60.40
34873;DHT22;21084;51.098;14.506;2023-09-07T09:09:27;33.10;60.00
34873;DHT22;21084;51.098;14.506;2023-09-07T09:11:55;33.30;60.10
34873;DHT22;21084;51.098;14.506;2023-09-07T09:14:23;33.10;59.60
34873;DHT22;21084;51.098;14.506;2023-09-07T09:16:51;33.00;58.00
34873;DHT22;21084;51.098;14.506;2023-09-07T09:19:29;33.20;56.00
34873;DHT22;21084;51.098;14.506;2023-09-07T09:22:00;33.10;56.20
34873;DHT22;21084;51.098;14.506;2023-09-07T09:24:33;32.60;53.90
34873;DHT22;21084;51.098;14.506;2023-09-07T09:27:01;32.60;56.50
34873;DHT22;21084;51.098;14.506;2023-09-07T09:29:32;33.00;57.90
34873;DHT22;21084;51.098;14.506;2023-09-07T09:32:00;33.40;54.70
34873;DHT22;21084;51.098;14.506;2023-09-07T09:34:32;33.10;55.60
34873;DHT22;21084;51.098;14.506;2023-09-07T09:37:01;33.60;57.50
34873;DHT22;21084;51.098;14.506;2023-09-07T09:39:31;33.90;54.60
34873;DHT22;21084;51.098;14.506;2023-09-07T09:42:00;33.90;56.70
34873;DHT22;21084;51.098;14.506;2023-09-07T09:44:29;34.30;55.90
34873;DHT22;21084;51.098;14.506;2023-09-07T09:46:58;34.60;54.30
34873;DHT22;21084;51.098;14.506;2023-09-07T09:49:27;34.80;54.30
34873;DHT22;21084;51.098;14.506;2023-09-07T09:51:55;35.10;54.00
34873;DHT22;21084;51.098;14.506;2023-09-07T09:54:25;35.10;52.40
34873;DHT22;21084;51.098;14.506;2023-09-07T09:56:54;34.40;52.80
34873;DHT22;21084;51.098;14.506;2023-09-07T09:59:24;34.50;52.60
34873;DHT22;21084;51.098;14.506;2023-09-07T10:01:52;34.70;53.30
34873;DHT22;21084;51.098;14.506;2023-09-07T10:04:22;34.80;51.70
34873;DHT22;21084;51.098;14.506;2023-09-07T10:06:53;34.50;50.90
34873;DHT22;21084;51.098;14.506;2023-09-07T10:09:22;34.30;50.90
34873;DHT22;21084;51.098;14.506;2023-09-07T10:11:51;34.50;51.40
34873;DHT22;21084;51.098;14.506;2023-09-07T10:14:20;34.30;49.40
34873;DHT22;21084;51.098;14.506;2023-09-07T10:16:50;34.70;51.20
34873;DHT22;21084;51.098;14.506;2023-09-07T10:19:20;34.40;49.10
34873;DHT22;21084;51.098;14.506;2023-09-07T10:21:50;34.10;49.90
34873;DHT22;21084;51.098;14.506;2023-09-07T10:24:24;34.20;50.80
34873;DHT22;21084;51.098;14.506;2023-09-07T10:26:57;34.70;51.50
34873;DHT22;21084;51.098;14.506;2023-09-07T10:29:25;35.20;51.60
34873;DHT22;21084;51.098;14.506;2023-09-07T10:31:56;35.40;49.20
34873;DHT22;21084;51.098;14.506;2023-09-07T10:34:33;35.50;48.60
34873;DHT22;21084;51.098;14.506;2023-09-07T10:37:02;35.20;47.80
34873;DHT22;21084;51.098;14.506;2023-09-07T10:39:31;35.50;49.60
34873;DHT22;21084;51.098;14.506;2023-09-07T10:41:59;35.30;46.60
34873;DHT22;21084;51.098;14.506;2023-09-07T10:44:28;35.30;47.60
34873;DHT22;21084;51.098;14.506;2023-09-07T10:46:58;35.60;46.30
34873;DHT22;21084;51.098;14.506;2023-09-07T10:49:28;35.00;43.30
34873;DHT22;21084;51.098;14.506;2023-09-07T10:51:56;35.50;47.10
34873;DHT22;21084;51.098;14.506;2023-09-07T10:54:24;35.30;46.30
34873;DHT22;21084;51.098;14.506;2023-09-07T10:56:53;35.60;46.40
34873;DHT22;21084;51.098;14.506;2023-09-07T10:59:27;35.70;46.50
34873;DHT22;21084;51.098;14.506;2023-09-07T11:01:55;36.20;47.20
34873;DHT22;21084;51.098;14.506;2023-09-07T11:04:32;36.20;45.90
34873;DHT22;21084;51.098;14.506;2023-09-07T11:07:01;35.40;44.70
34873;DHT22;21084;51.098;14.506;2023-09-07T11:09:31;35.50;46.70
34873;DHT22;21084;51.098;14.506;2023-09-07T11:12:03;35.50;43.20
34873;DHT22;21084;51.098;14.506;2023-09-07T11:14:32;34.90;44.00
34873;DHT22;21084;51.098;14.506;2023-09-07T11:17:01;34.60;45.50
34873;DHT22;21084;51.098;14.506;2023-09-07T11:19:32;34.40;46.60
34873;DHT22;21084;51.098;14.506;2023-09-07T11:22:01;34.20;48.20
34873;DHT22;21084;51.098;14.506;2023-09-07T11:24:31;34.70;49.60
34873;DHT22;21084;51.098;14.506;2023-09-07T11:27:00;34.80;48.10
34873;DHT22;21084;51.098;14.506;2023-09-07T11:29:30;34.50;48.30
34873;DHT22;21084;51.098;14.506;2023-09-07T11:32:05;34.70;49.60
34873;DHT22;21084;51.098;14.506;2023-09-07T11:34:35;35.50;50.90
34873;DHT22;21084;51.098;14.506;2023-09-07T11:37:03;35.80;48.60
34873;DHT22;21084;51.098;14.506;2023-09-07T11:39:32;35.60;48.00
34873;DHT22;21084;51.098;14.506;2023-09-07T11:42:00;35.20;48.60
34873;DHT22;21084;51.098;14.506;2023-09-07T11:44:28;35.30;47.40
34873;DHT22;21084;51.098;14.506;2023-09-07T11:46:57;35.50;46.90
34873;DHT22;21084;51.098;14.506;2023-09-07T11:49:25;35.50;47.40
34873;DHT22;21084;51.098;14.506;2023-09-07T11:51:55;35.60;46.80
34873;DHT22;21084;51.098;14.506;2023-09-07T11:54:23;35.70;46.80
34873;DHT22;21084;51.098;14.506;2023-09-07T11:56:52;35.50;46.60
34873;DHT22;21084;51.098;14.506;2023-09-07T11:59:20;35.00;47.10
34873;DHT22;21084;51.098;14.506;2023-09-07T12:01:48;35.40;47.50
34873;DHT22;21084;51.098;14.506;2023-09-07T12:04:16;35.60;47.00
34873;DHT22;21084;51.098;14.506;2023-09-07T12:06:45;36.00;47.30
34873;DHT22;21084;51.098;14.506;2023-09-07T12:09:15;36.20;46.60
34873;DHT22;21084;51.098;14.506;2023-09-07T12:11:44;35.20;45.90
34873;DHT22;21084;51.098;14.506;2023-09-07T12:14:12;35.40;47.70
34873;DHT22;21084;51.098;14.506;2023-09-07T12:16:40;35.80;47.60
34873;DHT22;21084;51.098;14.506;2023-09-07T12:19:09;36.40;47.30
34873;DHT22;21084;51.098;14.506;2023-09-07T12:21:37;36.20;44.70
34873;DHT22;21084;51.098;14.506;2023-09-07T12:24:05;35.60;45.60
34873;DHT22;21084;51.098;14.506;2023-09-07T12:26:35;35.80;45.90
34873;DHT22;21084;51.098;14.506;2023-09-07T12:29:03;35.60;47.30
34873;DHT22;21084;51.098;14.506;2023-09-07T12:31:32;35.40;47.80
34873;DHT22;21084;51.098;14.506;2023-09-07T12:34:00;35.70;46.10
34873;DHT22;21084;51.098;14.506;2023-09-07T12:36:28;35.30;45.40
34873;DHT22;21084;51.098;14.506;2023-09-07T12:38:57;35.40;44.50
34873;DHT22;21084;51.098;14.506;2023-09-07T12:41:28;35.40;45.50
34873;DHT22;21084;51.098;14.506;2023-09-07T12:43:59;35.80;46.40
34873;DHT22;21084;51.098;14.506;2023-09-07T12:46:27;36.40;46.70
34873;DHT22;21084;51.098;14.506;2023-09-07T12:48:56;36.60;45.10
34873;DHT22;21084;51.098;14.506;2023-09-07T12:51:24;36.50;46.00
34873;DHT22;21084;51.098;14.506;2023-09-07T12:53:52;36.70;44.80
34873;DHT22;21084;51.098;14.506;2023-09-07T12:56:20;36.30;43.80
34873;DHT22;21084;51.098;14.506;2023-09-07T12:58:49;35.50;43.90
34873;DHT22;21084;51.098;14.506;2023-09-07T13:01:20;35.40;44.30
34873;DHT22;21084;51.098;14.506;2023-09-07T13:03:49;35.50;44.40
34873;DHT22;21084;51.098;14.506;2023-09-07T13:06:17;35.60;46.30
34873;DHT22;21084;51.098;14.506;2023-09-07T13:08:45;36.00;44.50
34873;DHT22;21084;51.098;14.506;2023-09-07T13:11:14;36.10;43.90
34873;DHT22;21084;51.098;14.506;2023-09-07T13:13:42;35.90;43.40
34873;DHT22;21084;51.098;14.506;2023-09-07T13:16:11;35.70;43.60
34873;DHT22;21084;51.098;14.506;2023-09-07T13:18:41;35.50;42.60
34873;DHT22;21084;51.098;14.506;2023-09-07T13:21:10;36.10;43.80
34873;DHT22;21084;51.098;14.506;2023-09-07T13:23:38;35.80;43.80
34873;DHT22;21084;51.098;14.506;2023-09-07T13:26:08;35.70;43.10
34873;DHT22;21084;51.098;14.506;2023-09-07T13:28:36;35.70;43.70
34873;DHT22;21084;51.098;14.506;2023-09-07T13:31:05;36.10;44.90
34873;DHT22;21084;51.098;14.506;2023-09-07T13:33:33;36.40;43.60
34873;DHT22;21084;51.098;14.506;2023-09-07T13:36:03;35.60;43.20
34873;DHT22;21084;51.098;14.506;2023-09-07T13:38:31;35.40;43.80
34873;DHT22;21084;51.098;14.506;2023-09-07T13:41:00;35.30;43.50
34873;DHT22;21084;51.098;14.506;2023-09-07T13:43:28;35.70;44.60
34873;DHT22;21084;51.098;14.506;2023-09-07T13:45:57;35.80;43.40
34873;DHT22;21084;51.098;14.506;2023-09-07T13:48:25;35.50;43.50
34873;DHT22;21084;51.098;14.506;2023-09-07T13:50:53;35.80;45.40
34873;DHT22;21084;51.098;14.506;2023-09-07T13:53:23;35.90;43.70
34873;DHT22;21084;51.098;14.506;2023-09-07T13:55:52;35.90;42.90
34873;DHT22;21084;51.098;14.506;2023-09-07T13:58:20;35.60;43.60
34873;DHT22;21084;51.098;14.506;2023-09-07T14:00:49;35.70;44.60
34873;DHT22;21084;51.098;14.506;2023-09-07T14:03:18;35.60;44.20
34873;DHT22;21084;51.098;14.506;2023-09-07T14:05:46;35.60;44.00
34873;DHT22;21084;51.098;14.506;2023-09-07T14:08:15;35.60;45.50
34873;DHT22;21084;51.098;14.506;2023-09-07T14:10:45;36.00;44.90
34873;DHT22;21084;51.098;14.506;2023-09-07T14:13:14;35.90;44.50
34873;DHT22;21084;51.098;14.506;2023-09-07T14:15:42;36.20;45.00
34873;DHT22;21084;51.098;14.506;2023-09-07T14:18:11;36.30;45.00
34873;DHT22;21084;51.098;14.506;2023-09-07T14:20:40;35.90;44.70
34873;DHT22;21084;51.098;14.506;2023-09-07T14:23:08;34.90;44.70
34873;DHT22;21084;51.098;14.506;2023-09-07T14:25:36;35.20;48.10
34873;DHT22;21084;51.098;14.506;2023-09-07T14:28:10;34.80;45.70
34873;DHT22;21084;51.098;14.506;2023-09-07T14:30:38;34.40;46.90
34873;DHT22;21084;51.098;14.506;2023-09-07T14:33:07;34.50;47.80
34873;DHT22;21084;51.098;14.506;2023-09-07T14:35:35;34.70;47.60
34873;DHT22;21084;51.098;14.506;2023-09-07T14:38:03;34.60;48.20
34873;DHT22;21084;51.098;14.506;2023-09-07T14:40:32;34.90;48.00
34873;DHT22;21084;51.098;14.506;2023-09-07T14:43:00;35.00;47.40
34873;DHT22;21084;51.098;14.506;2023-09-07T14:45:30;34.10;46.50
34873;DHT22;21084;51.098;14.506;2023-09-07T14:47:58;34.10;48.00
34873;DHT22;21084;51.098;14.506;2023-09-07T14:50:27;34.50;48.80
34873;DHT22;21084;51.098;14.506;2023-09-07T14:52:56;34.10;46.50
34873;DHT22;21084;51.098;14.506;2023-09-07T14:55:25;33.70;48.40
34873;DHT22;21084;51.098;14.506;2023-09-07T14:57:53;33.70;48.20
34873;DHT22;21084;51.098;14.506;2023-09-07T15:00:22;33.60;48.20
34873;DHT22;21084;51.098;14.506;2023-09-07T15:02:53;33.60;49.00
34873;DHT22;21084;51.098;14.506;2023-09-07T15:05:21;33.80;48.90
34873;DHT22;21084;51.098;14.506;2023-09-07T15:07:50;33.80;48.40
34873;DHT22;21084;51.098;14.506;2023-09-07T15:10:18;33.40;47.80
34873;DHT22;21084;51.098;14.506;2023-09-07T15:12:46;32.90;48.00
34873;DHT22;21084;51.098;14.506;2023-09-07T15:15:14;32.50;49.10
34873;DHT22;21084;51.098;14.506;2023-09-07T15:17:46;32.70;48.70
34873;DHT22;21084;51.098;14.506;2023-09-07T15:20:17;32.50;49.70
34873;DHT22;21084;51.098;14.506;2023-09-07T15:22:45;32.60;49.00
34873;DHT22;21084;51.098;14.506;2023-09-07T15:25:14;32.60;49.70